Time;durP1;ratioP1;P1;durP2;ratioP2;P2;SDS_P1;SDS_P2;PMS_P1;PMS_P2;Temp;Humidity;BMP_temperature;BMP_pressure;BME280_temperature;BME280_humidity;BME280_pressure;Samples;Min_cycle;Max_cycle;Signal;HPM_P1;HPM_P2
2021/12/28 19:25:53;;;;;;;2.95;1.38;;;7.80;99.90;;;;;;5123414;27;20531;-69
2021/12/28 19:28:22;;;;;;;3.88;1.52;;;9.20;99.90;;;;;;5094346;28;20261;-69
2021/12/28 19:30:52;;;;;;;1.30;0.95;;;9.30;99.90;;;;;;5091952;28;20198;-69
2021/12/28 19:33:26;;;;;;;3.42;1.20;;;9.50;99.90;;;;;;5093952;28;20226;-72
2021/12/28 19:35:57;;;;;;;1.77;1.00;;;9.60;99.90;;;;;;5093055;28;20191;-70
2021/12/28 19:38:23;;;;;;;2.40;1.00;;;9.70;99.90;;;;;;5094901;28;20256;-71
2021/12/28 19:40:51;;;;;;;2.33;1.17;;;9.80;99.90;;;;;;5100175;28;20171;-72
2021/12/28 19:43:19;;;;;;;2.60;1.20;;;9.80;99.90;;;;;;5090973;28;20196;-73
2021/12/28 19:45:49;;;;;;;2.10;1.10;;;9.90;99.90;;;;;;5093719;28;20202;-73
2021/12/28 19:48:16;;;;;;;0.95;0.82;;;10.00;99.90;;;;;;5108672;28;20168;-72
2021/12/28 19:50:44;;;;;;;1.77;1.00;;;10.00;99.90;;;;;;5091334;28;20202;-71
2021/12/28 19:53:12;;;;;;;2.60;1.07;;;10.00;99.90;;;;;;5088081;28;20176;-68
2021/12/28 19:55:38;;;;;;;1.38;0.90;;;10.10;99.90;;;;;;5090731;28;20168;-70
2021/12/28 19:58:07;;;;;;;1.97;1.10;;;10.10;99.90;;;;;;5090771;28;20194;-71
2021/12/28 20:00:38;;;;;;;2.80;1.20;;;10.20;99.90;;;;;;5097410;28;20163;-68
2021/12/28 20:03:07;;;;;;;3.30;0.90;;;10.20;99.90;;;;;;5088312;28;20257;-73
2021/12/28 20:05:34;;;;;;;1.45;0.98;;;10.20;99.90;;;;;;5124295;28;20186;-70
2021/12/28 20:08:03;;;;;;;1.77;1.00;;;10.20;99.90;;;;;;5119505;27;20254;-73
2021/12/28 20:10:37;;;;;;;3.83;1.10;;;10.30;99.90;;;;;;5092670;28;20566;-74
2021/12/28 20:13:04;;;;;;;1.80;1.08;;;10.30;99.90;;;;;;5090799;28;20187;-73
2021/12/28 20:15:34;;;;;;;2.63;1.23;;;10.30;99.90;;;;;;5125837;27;20195;-73
2021/12/28 20:18:03;;;;;;;1.75;0.85;;;10.30;99.90;;;;;;5085390;28;20168;-73
2021/12/28 20:20:31;;;;;;;2.15;1.20;;;10.30;99.90;;;;;;5085282;28;20164;-72
2021/12/28 20:22:57;;;;;;;2.17;1.20;;;10.30;99.90;;;;;;5091469;28;20195;-72
2021/12/28 20:25:25;;;;;;;2.45;1.10;;;10.30;99.90;;;;;;5086692;28;20196;-72
2021/12/28 20:27:53;;;;;;;2.15;1.15;;;10.40;99.90;;;;;;5110028;28;20176;-72
2021/12/28 20:30:22;;;;;;;1.05;0.77;;;10.40;99.90;;;;;;5076736;28;20184;-72
2021/12/28 20:32:49;;;;;;;2.75;1.10;;;10.40;99.90;;;;;;5075131;28;20183;-70
2021/12/28 20:35:15;;;;;;;1.55;0.80;;;10.40;99.90;;;;;;5071456;28;20214;-72
2021/12/28 20:37:44;;;;;;;1.73;1.10;;;10.40;99.90;;;;;;5067803;28;20184;-70
2021/12/28 20:40:12;;;;;;;2.42;1.05;;;10.40;99.90;;;;;;5073263;28;20207;-73
2021/12/28 20:42:38;;;;;;;1.02;0.82;;;10.40;99.90;;;;;;5071771;28;20178;-72
2021/12/28 20:45:11;;;;;;;2.08;1.00;;;10.50;99.90;;;;;;5079460;28;20192;-71
2021/12/28 20:47:39;;;;;;;1.50;0.90;;;10.40;99.90;;;;;;5075616;28;20196;-73
2021/12/28 20:50:07;;;;;;;1.52;0.90;;;10.50;99.90;;;;;;5073027;28;20199;-71
2021/12/28 20:52:33;;;;;;;1.33;0.80;;;10.50;99.90;;;;;;5075384;28;20172;-69
2021/12/28 20:55:00;;;;;;;1.92;0.90;;;10.50;99.90;;;;;;5076350;28;20185;-73
2021/12/28 20:57:26;;;;;;;1.25;0.90;;;10.50;99.90;;;;;;5077268;28;20296;-74
2021/12/28 20:59:52;;;;;;;1.48;0.82;;;10.60;99.90;;;;;;5079322;28;20224;-73
2021/12/28 21:02:21;;;;;;;2.17;0.70;;;10.60;99.90;;;;;;5077352;28;20168;-70
2021/12/28 21:04:49;;;;;;;1.25;0.70;;;10.60;99.90;;;;;;5070647;28;20188;-74
2021/12/28 21:07:18;;;;;;;0.73;0.50;;;10.60;99.90;;;;;;5073564;28;20191;-75
2021/12/28 21:09:44;;;;;;;1.33;0.70;;;10.60;99.90;;;;;;5077410;28;20186;-75
2021/12/28 21:12:10;;;;;;;1.27;0.70;;;10.60;99.90;;;;;;5091762;28;20165;-75
2021/12/28 21:14:38;;;;;;;1.45;0.70;;;10.60;99.90;;;;;;5077063;28;20200;-71
2021/12/28 21:17:06;;;;;;;1.95;0.70;;;10.60;99.90;;;;;;5077350;28;20214;-72
2021/12/28 21:19:35;;;;;;;0.95;0.60;;;10.60;99.90;;;;;;5070075;28;20199;-73
2021/12/28 21:22:03;;;;;;;1.30;0.80;;;10.60;99.90;;;;;;5072597;28;20184;-74
2021/12/28 21:24:42;;;;;;;1.33;0.70;;;10.70;99.90;;;;;;5076071;28;20203;-74
2021/12/28 21:27:08;;;;;;;1.08;0.80;;;10.60;99.90;;;;;;5072908;28;20230;-74
2021/12/28 21:29:37;;;;;;;1.92;0.80;;;10.70;99.90;;;;;;5074161;28;20184;-73
2021/12/28 21:32:07;;;;;;;1.10;0.60;;;10.70;99.90;;;;;;5076979;28;20164;-75
2021/12/28 21:34:37;;;;;;;2.55;0.88;;;10.70;99.90;;;;;;5084098;28;20199;-76
2021/12/28 21:37:08;;;;;;;1.05;0.70;;;10.70;99.90;;;;;;5100532;28;20199;-76
2021/12/28 21:39:37;;;;;;;0.63;0.60;;;10.70;99.90;;;;;;5070639;28;20221;-75
2021/12/28 21:42:06;;;;;;;0.80;0.65;;;10.70;99.90;;;;;;5073552;28;20226;-73
2021/12/28 21:44:35;;;;;;;1.08;0.70;;;10.70;99.90;;;;;;5072959;28;20229;-76
2021/12/28 21:47:07;;;;;;;1.08;0.80;;;10.70;99.90;;;;;;5078270;28;20175;-72
2021/12/28 21:49:32;;;;;;;0.90;0.82;;;10.80;99.90;;;;;;5068039;28;20164;-75
2021/12/28 21:51:58;;;;;;;1.38;0.90;;;10.80;99.90;;;;;;5075476;28;20333;-74
2021/12/28 21:54:24;;;;;;;0.80;0.80;;;10.80;99.90;;;;;;5076253;28;20207;-74
2021/12/28 21:56:53;;;;;;;1.60;1.00;;;10.80;99.90;;;;;;5075401;28;20188;-73
2021/12/28 21:59:22;;;;;;;1.35;0.90;;;10.80;99.90;;;;;;5064700;28;20207;-75
2021/12/28 22:01:50;;;;;;;1.15;1.00;;;10.80;99.90;;;;;;5065605;28;20201;-74
2021/12/28 22:04:18;;;;;;;1.73;1.05;;;10.90;99.90;;;;;;5072429;28;20265;-73
2021/12/28 22:06:44;;;;;;;1.17;0.90;;;10.90;99.90;;;;;;5074799;28;20174;-74
2021/12/28 22:09:10;;;;;;;1.20;0.93;;;10.90;99.90;;;;;;5082042;28;20267;-74
2021/12/28 22:11:37;;;;;;;1.00;0.90;;;10.90;99.90;;;;;;5072740;28;20172;-71
2021/12/28 22:14:08;;;;;;;1.55;0.93;;;10.90;99.90;;;;;;5073182;28;20180;-71
2021/12/28 22:16:36;;;;;;;1.83;1.17;;;10.90;99.90;;;;;;5072753;28;20315;-72
2021/12/28 22:19:02;;;;;;;1.00;0.90;;;11.00;99.90;;;;;;5076028;28;20184;-72
2021/12/28 22:21:31;;;;;;;1.00;0.82;;;11.00;99.90;;;;;;5077414;28;20241;-74
2021/12/28 22:23:59;;;;;;;1.23;1.00;;;11.00;99.90;;;;;;5078745;28;20230;-71
2021/12/28 22:26:25;;;;;;;1.15;1.05;;;11.00;99.90;;;;;;5075940;28;20232;-72
2021/12/28 22:28:51;;;;;;;1.20;1.10;;;11.00;99.90;;;;;;5069712;28;20242;-74
2021/12/28 22:31:18;;;;;;;1.40;1.20;;;11.10;99.90;;;;;;5074050;28;20283;-73
2021/12/28 22:33:44;;;;;;;1.60;1.25;;;11.00;99.90;;;;;;5075385;28;20200;-74
2021/12/28 22:36:11;;;;;;;1.42;1.33;;;11.00;99.90;;;;;;5075709;28;20286;-72
2021/12/28 22:38:37;;;;;;;1.75;1.20;;;11.00;99.90;;;;;;5075664;28;20190;-72
2021/12/28 22:41:06;;;;;;;1.25;1.15;;;11.00;99.90;;;;;;5067726;28;20181;-72
2021/12/28 22:43:34;;;;;;;1.30;1.20;;;11.00;99.90;;;;;;5068870;28;20242;-72
2021/12/28 22:46:01;;;;;;;2.08;1.20;;;11.00;99.90;;;;;;5103182;28;20271;-74
2021/12/28 22:48:26;;;;;;;1.60;1.40;;;11.00;99.90;;;;;;5074058;28;20172;-74
2021/12/28 22:50:54;;;;;;;2.08;1.60;;;11.00;99.90;;;;;;5068384;28;20278;-70
2021/12/28 22:53:22;;;;;;;1.70;1.60;;;10.90;99.90;;;;;;5067447;28;20200;-71
2021/12/28 22:55:50;;;;;;;2.03;1.40;;;10.90;99.90;;;;;;5073086;28;20286;-72
2021/12/28 22:58:21;;;;;;;2.78;1.80;;;10.90;99.90;;;;;;5071722;28;20419;-72
2021/12/28 23:00:57;;;;;;;1.80;1.70;;;11.00;99.90;;;;;;5074293;28;20179;-72
2021/12/28 23:03:23;;;;;;;2.20;1.98;;;11.00;99.90;;;;;;5070402;28;20204;-70
2021/12/28 23:05:51;;;;;;;2.30;1.90;;;11.00;99.90;;;;;;5069739;28;20237;-70
2021/12/28 23:08:17;;;;;;;2.08;1.85;;;11.00;99.90;;;;;;5088001;28;20195;-69
2021/12/28 23:10:45;;;;;;;2.50;1.73;;;11.00;99.90;;;;;;5074483;28;20199;-71
2021/12/28 23:13:12;;;;;;;2.50;2.10;;;11.00;99.90;;;;;;5068743;28;20240;-70
2021/12/28 23:15:38;;;;;;;2.78;2.13;;;11.00;99.90;;;;;;5072377;28;20215;-70
2021/12/28 23:18:08;;;;;;;2.53;2.33;;;11.00;99.90;;;;;;5075416;28;20168;-70
2021/12/28 23:20:37;;;;;;;2.25;2.05;;;11.00;99.90;;;;;;5073274;28;20219;-68
2021/12/28 23:23:08;;;;;;;2.20;1.90;;;11.00;99.90;;;;;;5071947;28;20223;-69
2021/12/28 23:25:40;;;;;;;2.47;1.90;;;11.10;99.90;;;;;;5073356;28;20187;-68
2021/12/28 23:28:07;;;;;;;2.20;2.00;;;11.10;99.90;;;;;;5074783;28;20172;-69
2021/12/28 23:30:33;;;;;;;2.72;2.33;;;11.10;99.90;;;;;;5073102;28;20299;-68
2021/12/28 23:33:02;;;;;;;2.30;2.00;;;11.10;99.90;;;;;;5071368;28;20196;-67
2021/12/28 23:35:33;;;;;;;2.38;2.17;;;11.20;99.90;;;;;;5067698;28;20184;-69
2021/12/28 23:38:00;;;;;;;2.50;2.30;;;11.20;99.90;;;;;;5101038;28;20180;-68
2021/12/28 23:40:26;;;;;;;2.70;2.38;;;11.20;99.90;;;;;;5071708;28;20250;-69
2021/12/28 23:42:52;;;;;;;2.28;2.08;;;11.20;99.90;;;;;;5071946;28;20235;-69
2021/12/28 23:45:19;;;;;;;2.30;2.10;;;11.20;99.90;;;;;;5069609;28;20205;-68
2021/12/28 23:47:45;;;;;;;2.97;2.20;;;11.20;99.90;;;;;;5067798;28;20180;-70
2021/12/28 23:50:15;;;;;;;2.42;2.17;;;11.20;99.90;;;;;;5079606;28;20222;-69
2021/12/28 23:52:43;;;;;;;2.78;2.58;;;11.10;99.90;;;;;;5072792;28;20230;-69
2021/12/28 23:55:19;;;;;;;3.30;2.63;;;11.10;99.90;;;;;;5072435;28;20392;-70
2021/12/28 23:57:45;;;;;;;3.90;2.88;;;11.10;99.90;;;;;;5072375;28;20211;-69
